createdAt,value
2018-02-10T13:32:26.362Z,24.80
2018-02-10T13:39:18.886Z,22.80
2018-02-10T13:41:47.237Z,22.40
2018-02-10T13:44:14.709Z,22.30
2018-02-10T13:46:42.225Z,22.10
2018-02-10T13:49:09.680Z,21.90
2018-02-10T13:51:37.996Z,21.60
2018-02-10T13:54:05.557Z,21.60
2018-02-10T13:56:33.798Z,22.20
2018-02-10T13:59:02.171Z,21.90
2018-02-10T14:01:30.498Z,21.60
2018-02-10T14:03:58.799Z,21.50
2018-02-10T14:06:27.061Z,21.30
2018-02-10T14:08:55.010Z,21.30
2018-02-10T14:11:22.504Z,21.20
2018-02-10T14:13:50.093Z,21.20
2018-02-10T14:16:17.877Z,21.10
2018-02-10T14:18:45.347Z,21.10
2018-02-10T14:21:13.760Z,21.00
2018-02-10T14:23:41.216Z,21.00
2018-02-10T14:26:10.508Z,21.00
2018-02-10T14:28:38.903Z,21.10
2018-02-10T14:31:07.133Z,21.00
2018-02-10T14:33:35.373Z,21.00
2018-02-10T14:36:03.726Z,20.90
2018-02-10T14:41:30.839Z,20.10
2018-02-10T14:43:58.457Z,9.70
2018-02-10T14:46:26.674Z,6.20
2018-02-10T14:48:54.389Z,4.40
2018-02-10T14:51:22.895Z,3.80
2018-02-10T14:53:51.449Z,3.80
2018-02-10T14:56:19.807Z,3.50
2018-02-10T14:58:47.329Z,3.50
2018-02-10T15:01:15.648Z,3.30
2018-02-10T15:03:43.917Z,3.50
2018-02-10T15:06:11.404Z,3.50
2018-02-10T15:08:39.782Z,3.40
2018-02-10T15:11:08.101Z,3.60
2018-02-10T15:13:36.514Z,3.80
2018-02-10T15:16:04.019Z,3.80
2018-02-10T15:18:32.432Z,3.70
2018-02-10T15:21:00.070Z,3.60
2018-02-10T15:23:27.629Z,3.60
2018-02-10T15:25:56.665Z,3.40
2018-02-10T15:28:25.160Z,3.40
2018-02-10T15:31:04.642Z,3.30
2018-02-10T15:33:44.157Z,3.70
2018-02-10T15:36:11.755Z,3.70
2018-02-10T15:38:39.952Z,3.70
2018-02-10T15:41:07.565Z,3.80
2018-02-10T15:43:35.928Z,3.60
2018-02-10T15:46:06.735Z,3.80
2018-02-10T15:48:36.067Z,3.90
2018-02-10T15:51:18.530Z,3.90
2018-02-10T15:53:49.267Z,3.70
2018-02-10T15:56:17.707Z,3.70
2018-02-10T15:58:46.227Z,3.70
2018-02-10T16:01:17.711Z,3.60
2018-02-10T16:04:22.964Z,3.50
2018-02-10T16:07:09.797Z,3.60
2018-02-10T16:13:26.389Z,3.40
2018-02-10T16:16:13.251Z,3.60
2018-02-10T16:18:43.250Z,3.60
2018-02-10T16:21:18.625Z,3.50
2018-02-10T16:37:48.670Z,3.20
2018-02-10T16:40:22.808Z,3.50
2018-02-10T16:43:18.665Z,3.50
2018-02-10T16:46:05.021Z,3.30
2018-02-10T16:52:29.298Z,3.20
2018-02-10T16:55:01.934Z,3.20
2018-02-10T18:05:11.310Z,3.30
2018-02-10T18:07:43.712Z,3.30
2018-02-10T18:10:16.602Z,3.20
2018-02-10T18:12:45.332Z,3.20
2018-02-10T18:15:31.268Z,3.30
2018-02-10T18:17:59.900Z,3.30
2018-02-10T18:20:31.197Z,3.30
2018-02-10T18:23:20.991Z,3.30
2018-02-10T18:25:51.357Z,3.30
2018-02-10T18:28:18.994Z,3.30
2018-02-10T18:30:48.511Z,3.30
2018-02-10T18:33:21.217Z,3.40
2018-02-10T18:35:56.103Z,3.30
2018-02-10T18:38:26.914Z,3.50
2018-02-10T18:40:58.369Z,3.20
2018-02-10T18:43:30.123Z,3.40
2018-02-10T18:46:04.717Z,3.40
2018-02-10T18:49:03.659Z,3.10
2018-02-10T18:51:33.742Z,3.30
2018-02-10T18:54:07.827Z,3.30
2018-02-10T18:56:36.361Z,3.30
2018-02-10T18:59:04.741Z,3.70
2018-02-10T19:01:37.937Z,3.50
2018-02-10T19:04:14.303Z,3.40
2018-02-10T19:06:50.117Z,3.40
2018-02-10T19:09:34.329Z,3.30
2018-02-10T19:12:02.742Z,3.20
2018-02-10T19:14:31.018Z,3.10
2018-02-10T19:16:59.286Z,3.20
2018-02-10T19:19:26.845Z,3.10
2018-02-10T19:21:54.525Z,3.10
2018-02-10T20:18:44.200Z,2.60
2018-02-10T20:21:19.348Z,2.30
2018-02-10T20:36:37.568Z,2.60
2018-02-10T20:40:31.600Z,2.60
2018-02-10T20:42:59.110Z,2.60
2018-02-10T20:45:27.430Z,2.60
2018-02-10T20:47:55.848Z,2.70
2018-02-10T20:50:24.121Z,2.50
2018-02-10T20:52:52.436Z,2.50
2018-02-10T20:55:19.955Z,2.50
2018-02-10T20:57:48.661Z,2.40
2018-02-10T21:00:16.214Z,2.30
2018-02-10T21:02:44.572Z,2.70
2018-02-10T21:05:12.441Z,2.60
2018-02-10T21:07:40.612Z,2.80
2018-02-10T21:10:11.252Z,2.60
2018-02-10T21:12:38.794Z,2.80
2018-02-10T21:15:06.899Z,3.00
2018-02-10T21:17:35.651Z,2.80
2018-02-10T21:20:05.123Z,2.70
2018-02-10T21:22:32.644Z,2.70
2018-02-10T21:25:00.244Z,2.40
2018-02-10T21:27:27.768Z,2.30
2018-02-10T21:29:55.296Z,2.40
2018-02-10T21:32:23.563Z,2.80
2018-02-10T21:34:51.976Z,2.80
2018-02-10T21:37:19.467Z,2.80
2018-02-10T21:39:47.762Z,2.60
2018-02-10T21:42:15.426Z,2.60
2018-02-10T21:44:42.977Z,2.60
2018-02-10T21:47:10.475Z,2.30
2018-02-10T21:49:38.787Z,2.60
2018-02-10T21:52:06.299Z,2.60
2018-02-10T21:54:33.815Z,2.90
2018-02-10T21:57:02.126Z,2.70
2018-02-10T21:59:29.745Z,2.70
2018-02-10T22:01:57.267Z,2.70
2018-02-10T22:04:25.521Z,2.90
2018-02-10T22:06:53.019Z,2.90
2018-02-10T22:09:21.260Z,2.80
2018-02-10T22:11:48.775Z,2.80
2018-02-10T22:14:16.266Z,2.50
2018-02-10T22:16:43.791Z,2.80
2018-02-10T22:19:12.057Z,2.60
2018-02-10T22:21:40.405Z,2.70
2018-02-10T22:24:07.956Z,2.70
2018-02-10T22:26:35.466Z,2.80
2018-02-10T22:29:03.000Z,2.60
2018-02-10T22:31:31.275Z,2.60
2018-02-10T22:34:00.089Z,2.70
2018-02-10T22:36:27.592Z,2.60
2018-02-10T22:38:55.105Z,2.80
2018-02-10T22:41:23.435Z,2.50
2018-02-10T22:43:50.925Z,2.50
2018-02-10T22:46:19.993Z,2.50
2018-02-10T22:48:47.659Z,2.40
2018-02-10T22:51:15.273Z,2.30
2018-02-10T22:53:42.791Z,2.60
2018-02-10T22:56:10.257Z,2.80
2018-02-10T22:58:37.749Z,2.80
2018-02-10T23:01:11.058Z,2.90
2018-02-10T23:03:38.574Z,2.70
2018-02-10T23:06:06.058Z,2.80
2018-02-10T23:08:34.346Z,2.70
2018-02-10T23:11:01.836Z,2.70
2018-02-10T23:13:30.112Z,2.80
2018-02-10T23:15:58.386Z,2.70
2018-02-10T23:18:25.873Z,2.70
2018-02-10T23:20:53.377Z,2.80
2018-02-10T23:23:20.926Z,2.90
2018-02-10T23:25:49.234Z,2.90
2018-02-10T23:28:16.717Z,2.90
2018-02-10T23:30:44.265Z,2.90
2018-02-10T23:33:11.750Z,3.10
2018-02-10T23:35:39.241Z,3.40
2018-02-10T23:38:07.486Z,3.70
2018-02-10T23:40:35.009Z,3.70
2018-02-10T23:43:02.566Z,3.70
2018-02-10T23:45:30.144Z,3.50
2018-02-10T23:47:58.386Z,3.50
2018-02-10T23:50:27.363Z,3.50
2018-02-10T23:52:54.847Z,3.50
2018-02-10T23:55:22.420Z,3.50
2018-02-10T23:57:49.981Z,3.60
